Aviation Digital Data Service (ADDS)

Output produced by METARs form (2010 UTC 20 August 2019)
found at http://www.aviationweather.gov/metar/data/
 
METAR text: EHEH 201955Z AUTO VRB02KT 9999 SCT054 BKN062 BKN069 17/09 Q1025 BLU 29003KT CAVOK
Conditions at: EHEH (EINDHOVEN RNLAFB, NL) observed 1955 UTC 20 August 2019
Temperature: 17.0°C (63°F)
Dewpoint: 9.0°C (48°F) [RH = 59%]
Pressure (altimeter): 30.27 inches Hg (1025.0 mb)
Winds: variable direction winds at 2 MPH (2 knots; 1.0 m/s)
Visibility: 6 or more miles (10+ km)
Ceiling: 6200 feet AGL
Clouds: scattered clouds at 5400 feet AGL
broken clouds at 6200 feet AGL
broken clouds at 6900 feet AGL
Weather: no significant weather observed at this time

METAR text: EHEH 201925Z AUTO 28003KT 240V300 9999 BKN052 BKN058 BKN069 17/09 Q1025 BLU 29003KT CAVOK
Conditions at: EHEH (EINDHOVEN RNLAFB, NL) observed 1925 UTC 20 August 2019
Temperature: 17.0°C (63°F)
Dewpoint: 9.0°C (48°F) [RH = 59%]
Pressure (altimeter): 30.27 inches Hg (1025.0 mb)
Winds: from the W (280 degrees) at 3 MPH (3 knots; 1.5 m/s)
Visibility: 6 or more miles (10+ km)
Ceiling: 5200 feet AGL
Clouds: broken clouds at 5200 feet AGL
broken clouds at 5800 feet AGL
broken clouds at 6900 feet AGL
Weather: no significant weather observed at this time

METAR text: EHEH 201855Z AUTO 30004KT 240V350 9999 OVC054 18/09 Q1025 BLU 29003KT CAVOK
Conditions at: EHEH (EINDHOVEN RNLAFB, NL) observed 1855 UTC 20 August 2019
Temperature: 18.0°C (64°F)
Dewpoint: 9.0°C (48°F) [RH = 56%]
Pressure (altimeter): 30.27 inches Hg (1025.0 mb)
Winds: from the WNW (300 degrees) at 5 MPH (4 knots; 2.1 m/s)
Visibility: 6 or more miles (10+ km)
Ceiling: 5400 feet AGL
Clouds: overcast cloud deck at 5400 feet AGL
Weather: no significant weather observed at this time

METAR text: EHEH 201825Z AUTO 30005KT 220V010 9999 OVC058 18/10 Q1025 BLU 29006KT 9999 FEW045
Conditions at: EHEH (EINDHOVEN RNLAFB, NL) observed 1825 UTC 20 August 2019
Temperature: 18.0°C (64°F)
Dewpoint: 10.0°C (50°F) [RH = 59%]
Pressure (altimeter): 30.27 inches Hg (1025.0 mb)
Winds: from the WNW (300 degrees) at 6 MPH (5 knots; 2.6 m/s)
Visibility: 6 or more miles (10+ km)
Ceiling: 5800 feet AGL
Clouds: overcast cloud deck at 5800 feet AGL
few clouds at 4500 feet AGL
Weather: no significant weather observed at this time

METAR text: EHEH 201755Z AUTO 30005KT 250V350 9999 FEW062 19/09 Q1024 BLU 29006KT 9999 FEW045
Conditions at: EHEH (EINDHOVEN RNLAFB, NL) observed 1755 UTC 20 August 2019
Temperature: 19.0°C (66°F)
Dewpoint: 9.0°C (48°F) [RH = 52%]
Pressure (altimeter): 30.24 inches Hg (1024.0 mb)
Winds: from the WNW (300 degrees) at 6 MPH (5 knots; 2.6 m/s)
Visibility: 6 or more miles (10+ km)
Ceiling: at least 12,000 feet AGL
Clouds: few clouds at 6200 feet AGL
few clouds at 4500 feet AGL
Weather: no significant weather observed at this time

METAR text: EHEH 201725Z AUTO 30007KT 230V330 9999 NCD 20/09 Q1024 BLU 28008KT 9999 FEW045
Conditions at: EHEH (EINDHOVEN RNLAFB, NL) observed 1725 UTC 20 August 2019
Temperature: 20.0°C (68°F)
Dewpoint: 9.0°C (48°F) [RH = 49%]
Pressure (altimeter): 30.24 inches Hg (1024.0 mb)
Winds: from the WNW (300 degrees) at 8 MPH (7 knots; 3.6 m/s)
Visibility: 6 or more miles (10+ km)
Ceiling: at least 12,000 feet AGL
Clouds: few clouds at 4500 feet AGL
Weather: no significant weather observed at this time

METAR text: EHEH 201655Z AUTO 29008KT 240V360 9999 NCD 20/08 Q1023 BLU 28008KT 9999 FEW045
Conditions at: EHEH (EINDHOVEN RNLAFB, NL) observed 1655 UTC 20 August 2019
Temperature: 20.0°C (68°F)
Dewpoint: 8.0°C (46°F) [RH = 46%]
Pressure (altimeter): 30.21 inches Hg (1023.0 mb)
Winds: from the WNW (290 degrees) at 9 MPH (8 knots; 4.1 m/s)
Visibility: 6 or more miles (10+ km)
Ceiling: at least 12,000 feet AGL
Clouds: few clouds at 4500 feet AGL
Weather: no significant weather observed at this time

METAR text: EHEH 201625Z AUTO 28010KT 230V340 9999 NCD 21/07 Q1023 BLU 27009KT 9999 FEW045
Conditions at: EHEH (EINDHOVEN RNLAFB, NL) observed 1625 UTC 20 August 2019
Temperature: 21.0°C (70°F)
Dewpoint: 7.0°C (45°F) [RH = 40%]
Pressure (altimeter): 30.21 inches Hg (1023.0 mb)
Winds: from the W (280 degrees) at 12 MPH (10 knots; 5.1 m/s)
Visibility: 6 or more miles (10+ km)
Ceiling: at least 12,000 feet AGL
Clouds: few clouds at 4500 feet AGL
Weather: no significant weather observed at this time

METAR text: EHEH 201555Z AUTO 28009KT 230V340 9999 NCD 21/08 Q1023 BLU 27009KT 9999 FEW045
Conditions at: EHEH (EINDHOVEN RNLAFB, NL) observed 1555 UTC 20 August 2019
Temperature: 21.0°C (70°F)
Dewpoint: 8.0°C (46°F) [RH = 43%]
Pressure (altimeter): 30.21 inches Hg (1023.0 mb)
Winds: from the W (280 degrees) at 10 MPH (9 knots; 4.6 m/s)
Visibility: 6 or more miles (10+ km)
Ceiling: at least 12,000 feet AGL
Clouds: few clouds at 4500 feet AGL
Weather: no significant weather observed at this time

METAR text: EHEH 201546Z AUTO 28011KT 230V350 9999 NCD 21/08 Q1023 BLU 27009KT 9999 FEW045
Conditions at: EHEH (EINDHOVEN RNLAFB, NL) observed 1546 UTC 20 August 2019
Temperature: 21.0°C (70°F)
Dewpoint: 8.0°C (46°F) [RH = 43%]
Pressure (altimeter): 30.21 inches Hg (1023.0 mb)
Winds: from the W (280 degrees) at 13 MPH (11 knots; 5.7 m/s)
Visibility: 6 or more miles (10+ km)
Ceiling: at least 12,000 feet AGL
Clouds: few clouds at 4500 feet AGL
Weather: no significant weather observed at this time

METAR text: EHEH 201525Z AUTO 28007KT 240V330 9999 FEW042 SCT079 21/10 Q1023 BLU 25009KT 9999 SCT045 TEMPO 29012G22KT FEW030CB SCT040
Conditions at: EHEH (EINDHOVEN RNLAFB, NL) observed 1525 UTC 20 August 2019
Temperature: 21.0°C (70°F)
Dewpoint: 10.0°C (50°F) [RH = 49%]
Pressure (altimeter): 30.21 inches Hg (1023.0 mb)
Winds: from the W (280 degrees) at 8 MPH (7 knots; 3.6 m/s)
Visibility: 6 or more miles (10+ km)
Ceiling: at least 12,000 feet AGL
Clouds: few clouds at 4200 feet AGL
scattered clouds at 7900 feet AGL
scattered clouds at 4500 feet AGL
Weather: no significant weather observed at this time

METAR text: EHEH 201455Z AUTO 30008KT 240V360 9999 BKN041 21/11 Q1023 BLU 25009KT 9999 SCT045 TEMPO 29012G22KT FEW030CB SCT040
Conditions at: EHEH (EINDHOVEN RNLAFB, NL) observed 1455 UTC 20 August 2019
Temperature: 21.0°C (70°F)
Dewpoint: 11.0°C (52°F) [RH = 53%]
Pressure (altimeter): 30.21 inches Hg (1023.0 mb)
Winds: from the WNW (300 degrees) at 9 MPH (8 knots; 4.1 m/s)
Visibility: 6 or more miles (10+ km)
Ceiling: 4100 feet AGL
Clouds: broken clouds at 4100 feet AGL
scattered clouds at 4500 feet AGL
Weather: no significant weather observed at this time

METAR text: EHEH 201425Z AUTO 29008KT 230V360 9999 FEW049 21/11 Q1022 BLU 25009KT 9999 SCT045 TEMPO 29012G22KT FEW030CB SCT040
Conditions at: EHEH (EINDHOVEN RNLAFB, NL) observed 1425 UTC 20 August 2019
Temperature: 21.0°C (70°F)
Dewpoint: 11.0°C (52°F) [RH = 53%]
Pressure (altimeter): 30.18 inches Hg (1022.0 mb)
Winds: from the WNW (290 degrees) at 9 MPH (8 knots; 4.1 m/s)
Visibility: 6 or more miles (10+ km)
Ceiling: at least 12,000 feet AGL
Clouds: few clouds at 4900 feet AGL
scattered clouds at 4500 feet AGL
Weather: no significant weather observed at this time

METAR text: EHEH 201355Z AUTO 25009KT 200V310 9999 FEW049 SCT055 BKN090 20/10 Q1022 BLU 25009KT 9999 SCT045 TEMPO 28012G22KT FEW030CB SCT040
Conditions at: EHEH (EINDHOVEN RNLAFB, NL) observed 1355 UTC 20 August 2019
Temperature: 20.0°C (68°F)
Dewpoint: 10.0°C (50°F) [RH = 53%]
Pressure (altimeter): 30.18 inches Hg (1022.0 mb)
Winds: from the WSW (250 degrees) at 10 MPH (9 knots; 4.6 m/s)
Visibility: 6 or more miles (10+ km)
Ceiling: 9000 feet AGL
Clouds: few clouds at 4900 feet AGL
scattered clouds at 5500 feet AGL
broken clouds at 9000 feet AGL
scattered clouds at 4500 feet AGL
Weather: no significant weather observed at this time

METAR text: EHEH 201325Z AUTO 24009KT 190V270 9999 FEW048 BKN081 BKN087 21/11 Q1022 BLU 25009KT 9999 SCT040 TEMPO 28012G22KT FEW030CB SCT040
Conditions at: EHEH (EINDHOVEN RNLAFB, NL) observed 1325 UTC 20 August 2019
Temperature: 21.0°C (70°F)
Dewpoint: 11.0°C (52°F) [RH = 53%]
Pressure (altimeter): 30.18 inches Hg (1022.0 mb)
Winds: from the WSW (240 degrees) at 10 MPH (9 knots; 4.6 m/s)
Visibility: 6 or more miles (10+ km)
Ceiling: 8100 feet AGL
Clouds: few clouds at 4800 feet AGL
broken clouds at 8100 feet AGL
broken clouds at 8700 feet AGL
scattered clouds at 4000 feet AGL
Weather: no significant weather observed at this time

METAR text: EHEH 201258Z AUTO 25009KT 130V290 9999 FEW043 21/10 Q1022 BLU 25009KT 9999 SCT040 TEMPO 28012G22KT FEW030CB SCT040
Conditions at: EHEH (EINDHOVEN RNLAFB, NL) observed 1258 UTC 20 August 2019
Temperature: 21.0°C (70°F)
Dewpoint: 10.0°C (50°F) [RH = 49%]
Pressure (altimeter): 30.18 inches Hg (1022.0 mb)
Winds: from the WSW (250 degrees) at 10 MPH (9 knots; 4.6 m/s)
Visibility: 6 or more miles (10+ km)
Ceiling: at least 12,000 feet AGL
Clouds: few clouds at 4300 feet AGL
scattered clouds at 4000 feet AGL
Weather: no significant weather observed at this time

METAR text: EHEH 201255Z AUTO 24006KT 130V290 9999 FEW043 21/13 Q1022 BLU 23011KT 9999 SCT035 TEMPO 24012G22KT 5000 SHRA SCT030CB SCT035
Conditions at: EHEH (EINDHOVEN RNLAFB, NL) observed 1255 UTC 20 August 2019
Temperature: 21.0°C (70°F)
Dewpoint: 13.0°C (55°F) [RH = 60%]
Pressure (altimeter): 30.18 inches Hg (1022.0 mb)
Winds: from the WSW (240 degrees) at 7 MPH (6 knots; 3.1 m/s)
Visibility: 6 or more miles (10+ km)
Ceiling: at least 12,000 feet AGL
Clouds: few clouds at 4300 feet AGL
scattered clouds at 3500 feet AGL
Weather: no significant weather observed at this time

METAR text: EHEH 201225Z AUTO 27004KT 190V360 9999 NCD 20/13 Q1022 BLU 23011KT 9999 SCT035 TEMPO 24012G22KT 5000 SHRA SCT030CB SCT035
Conditions at: EHEH (EINDHOVEN RNLAFB, NL) observed 1225 UTC 20 August 2019
Temperature: 20.0°C (68°F)
Dewpoint: 13.0°C (55°F) [RH = 64%]
Pressure (altimeter): 30.18 inches Hg (1022.0 mb)
Winds: from the W (270 degrees) at 5 MPH (4 knots; 2.1 m/s)
Visibility: 6 or more miles (10+ km)
Ceiling: at least 12,000 feet AGL
Clouds: scattered clouds at 3500 feet AGL
Weather: no significant weather observed at this time

METAR text: EHEH 201155Z AUTO 29008KT 240V310 9999 -SHRA FEW015CB SCT049 BKN055 16/13 Q1022 BLU 23011KT 9999 SCT035 TEMPO 24012G22KT 5000 SHRA SCT030CB SCT035
Conditions at: EHEH (EINDHOVEN RNLAFB, NL) observed 1155 UTC 20 August 2019
Temperature: 16.0°C (61°F)
Dewpoint: 13.0°C (55°F) [RH = 82%]
Pressure (altimeter): 30.18 inches Hg (1022.0 mb)
Winds: from the WNW (290 degrees) at 9 MPH (8 knots; 4.1 m/s)
Visibility: 6 or more miles (10+ km)
Ceiling: 5500 feet AGL
Clouds: few clouds at 1500 feet AGL
scattered clouds at 4900 feet AGL
broken clouds at 5500 feet AGL
scattered clouds at 3500 feet AGL
Weather: -SHRA  (light rain showers)

METAR text: EHEH 201125Z AUTO 22010KT 220V280 9999 FEW037 FEW047CB SCT094 BKN102 22/10 Q1022 BLU 23011KT 9999 SCT035 TEMPO 24012G22KT 5000 SHRA SCT030CB SCT035
Conditions at: EHEH (EINDHOVEN RNLAFB, NL) observed 1125 UTC 20 August 2019
Temperature: 22.0°C (72°F)
Dewpoint: 10.0°C (50°F) [RH = 46%]
Pressure (altimeter): 30.18 inches Hg (1022.0 mb)
Winds: from the SW (220 degrees) at 12 MPH (10 knots; 5.1 m/s)
Visibility: 6 or more miles (10+ km)
Ceiling: 10200 feet AGL
Clouds: few clouds at 3700 feet AGL
few clouds at 4700 feet AGL
scattered clouds at 9400 feet AGL
broken clouds at 10200 feet AGL
Weather: no significant weather observed at this time

METAR text: EHEH 201115Z AUTO 22010KT 180V250 9999 FEW037 FEW046CB 22/10 Q1022 BLU 23011KT 9999 SCT035 TEMPO 24012G22KT 5000 SHRA SCT030CB SCT035
Conditions at: EHEH (EINDHOVEN RNLAFB, NL) observed 1115 UTC 20 August 2019
Temperature: 22.0°C (72°F)
Dewpoint: 10.0°C (50°F) [RH = 46%]
Pressure (altimeter): 30.18 inches Hg (1022.0 mb)
Winds: from the SW (220 degrees) at 12 MPH (10 knots; 5.1 m/s)
Visibility: 6 or more miles (10+ km)
Ceiling: at least 12,000 feet AGL
Clouds: few clouds at 3700 feet AGL
few clouds at 4600 feet AGL
scattered clouds at 3500 feet AGL
Weather: no significant weather observed at this time

METAR text: EHEH 201104Z AUTO 23009KT 190V310 9999 FEW047 21/11 Q1022 BLU 23011KT 9999 SCT035
Conditions at: EHEH (EINDHOVEN RNLAFB, NL) observed 1104 UTC 20 August 2019
Temperature: 21.0°C (70°F)
Dewpoint: 11.0°C (52°F) [RH = 53%]
Pressure (altimeter): 30.18 inches Hg (1022.0 mb)
Winds: from the SW (230 degrees) at 10 MPH (9 knots; 4.6 m/s)
Visibility: 6 or more miles (10+ km)
Ceiling: at least 12,000 feet AGL
Clouds: few clouds at 4700 feet AGL
scattered clouds at 3500 feet AGL
Weather: no significant weather observed at this time

METAR text: EHEH 201055Z AUTO 23011KT 200V300 9999 SCT036 BKN041 BKN049 20/10 Q1022 BLU 23011KT 9999 SCT035
Conditions at: EHEH (EINDHOVEN RNLAFB, NL) observed 1055 UTC 20 August 2019
Temperature: 20.0°C (68°F)
Dewpoint: 10.0°C (50°F) [RH = 53%]
Pressure (altimeter): 30.18 inches Hg (1022.0 mb)
Winds: from the SW (230 degrees) at 13 MPH (11 knots; 5.7 m/s)
Visibility: 6 or more miles (10+ km)
Ceiling: 4100 feet AGL
Clouds: scattered clouds at 3600 feet AGL
broken clouds at 4100 feet AGL
broken clouds at 4900 feet AGL
scattered clouds at 3500 feet AGL
Weather: no significant weather observed at this time

METAR text: EHEH 201025Z AUTO 23010KT 200V280 9999 SCT034 SCT042 21/11 Q1022 BLU 23011KT 9999 SCT035
Conditions at: EHEH (EINDHOVEN RNLAFB, NL) observed 1025 UTC 20 August 2019
Temperature: 21.0°C (70°F)
Dewpoint: 11.0°C (52°F) [RH = 53%]
Pressure (altimeter): 30.18 inches Hg (1022.0 mb)
Winds: from the SW (230 degrees) at 12 MPH (10 knots; 5.1 m/s)
Visibility: 6 or more miles (10+ km)
Ceiling: at least 12,000 feet AGL
Clouds: scattered clouds at 3400 feet AGL
scattered clouds at 4200 feet AGL
scattered clouds at 3500 feet AGL
Weather: no significant weather observed at this time

METAR text: EHEH 200959Z AUTO 26008KT 220V290 9999 BKN029 BKN035 BKN048 20/11 Q1022 BLU 23011KT 9999 SCT030
Conditions at: EHEH (EINDHOVEN RNLAFB, NL) observed 0959 UTC 20 August 2019
Temperature: 20.0°C (68°F)
Dewpoint: 11.0°C (52°F) [RH = 56%]
Pressure (altimeter): 30.18 inches Hg (1022.0 mb)
Winds: from the W (260 degrees) at 9 MPH (8 knots; 4.1 m/s)
Visibility: 6 or more miles (10+ km)
Ceiling: 2900 feet AGL
Clouds: broken clouds at 2900 feet AGL
broken clouds at 3500 feet AGL
broken clouds at 4800 feet AGL
scattered clouds at 3000 feet AGL
Weather: no significant weather observed at this time

METAR text: EHEH 200955Z AUTO 23009KT 180V290 9999 BKN028 BKN034 BKN046 20/11 Q1022 BLU 23011KT 9999 SCT030
Conditions at: EHEH (EINDHOVEN RNLAFB, NL) observed 0955 UTC 20 August 2019
Temperature: 20.0°C (68°F)
Dewpoint: 11.0°C (52°F) [RH = 56%]
Pressure (altimeter): 30.18 inches Hg (1022.0 mb)
Winds: from the SW (230 degrees) at 10 MPH (9 knots; 4.6 m/s)
Visibility: 6 or more miles (10+ km)
Ceiling: 2800 feet AGL
Clouds: broken clouds at 2800 feet AGL
broken clouds at 3400 feet AGL
broken clouds at 4600 feet AGL
scattered clouds at 3000 feet AGL
Weather: no significant weather observed at this time

METAR text: EHEH 200925Z AUTO 25010KT 190V310 9999 FEW025 19/11 Q1022 BLU 23011KT 9999 SCT028
Conditions at: EHEH (EINDHOVEN RNLAFB, NL) observed 0925 UTC 20 August 2019
Temperature: 19.0°C (66°F)
Dewpoint: 11.0°C (52°F) [RH = 60%]
Pressure (altimeter): 30.18 inches Hg (1022.0 mb)
Winds: from the WSW (250 degrees) at 12 MPH (10 knots; 5.1 m/s)
Visibility: 6 or more miles (10+ km)
Ceiling: at least 12,000 feet AGL
Clouds: few clouds at 2500 feet AGL
scattered clouds at 2800 feet AGL
Weather: no significant weather observed at this time

METAR text: EHEH 200855Z AUTO 24010KT 200V300 9999 NCD 19/12 Q1022 BLU 21009KT 9999 SCT025
Conditions at: EHEH (EINDHOVEN RNLAFB, NL) observed 0855 UTC 20 August 2019
Temperature: 19.0°C (66°F)
Dewpoint: 12.0°C (54°F) [RH = 64%]
Pressure (altimeter): 30.18 inches Hg (1022.0 mb)
Winds: from the WSW (240 degrees) at 12 MPH (10 knots; 5.1 m/s)
Visibility: 6 or more miles (10+ km)
Ceiling: at least 12,000 feet AGL
Clouds: scattered clouds at 2500 feet AGL
Weather: no significant weather observed at this time

METAR text: EHEH 200825Z AUTO 22008KT 190V250 9999 NCD 18/13 Q1022 BLU 21009KT 9999 FEW020 BECMG SCT025
Conditions at: EHEH (EINDHOVEN RNLAFB, NL) observed 0825 UTC 20 August 2019
Temperature: 18.0°C (64°F)
Dewpoint: 13.0°C (55°F) [RH = 73%]
Pressure (altimeter): 30.18 inches Hg (1022.0 mb)
Winds: from the SW (220 degrees) at 9 MPH (8 knots; 4.1 m/s)
Visibility: 6 or more miles (10+ km)
Ceiling: at least 12,000 feet AGL
Clouds: few clouds at 2000 feet AGL
Weather: no significant weather observed at this time

METAR text: EHEH 200814Z AUTO 22008KT 180V270 9999 NCD 18/13 Q1022 BLU 21009KT 9999 FEW020
Conditions at: EHEH (EINDHOVEN RNLAFB, NL) observed 0814 UTC 20 August 2019
Temperature: 18.0°C (64°F)
Dewpoint: 13.0°C (55°F) [RH = 73%]
Pressure (altimeter): 30.18 inches Hg (1022.0 mb)
Winds: from the SW (220 degrees) at 9 MPH (8 knots; 4.1 m/s)
Visibility: 6 or more miles (10+ km)
Ceiling: at least 12,000 feet AGL
Clouds: few clouds at 2000 feet AGL
Weather: no significant weather observed at this time

METAR text: EHEH 200755Z AUTO 22007KT 190V270 9999 NCD 17/13 Q1022 BLU 21009KT CAVOK
Conditions at: EHEH (EINDHOVEN RNLAFB, NL) observed 0755 UTC 20 August 2019
Temperature: 17.0°C (63°F)
Dewpoint: 13.0°C (55°F) [RH = 77%]
Pressure (altimeter): 30.18 inches Hg (1022.0 mb)
Winds: from the SW (220 degrees) at 8 MPH (7 knots; 3.6 m/s)
Visibility: 6 or more miles (10+ km)
Ceiling: at least 12,000 feet AGL
Clouds: sky clear below 12,000 feet AGL
Weather: no significant weather observed at this time

METAR text: EHEH 200725Z AUTO 23007KT 190V270 9999 NCD 16/13 Q1021 BLU 21009KT CAVOK
Conditions at: EHEH (EINDHOVEN RNLAFB, NL) observed 0725 UTC 20 August 2019
Temperature: 16.0°C (61°F)
Dewpoint: 13.0°C (55°F) [RH = 82%]
Pressure (altimeter): 30.15 inches Hg (1021.0 mb)
Winds: from the SW (230 degrees) at 8 MPH (7 knots; 3.6 m/s)
Visibility: 6 or more miles (10+ km)
Ceiling: at least 12,000 feet AGL
Clouds: sky clear below 12,000 feet AGL
Weather: no significant weather observed at this time

METAR text: EHEH 200655Z AUTO 22007KT 190V270 9999 NCD 15/12 Q1021 BLU 21009KT CAVOK
Conditions at: EHEH (EINDHOVEN RNLAFB, NL) observed 0655 UTC 20 August 2019
Temperature: 15.0°C (59°F)
Dewpoint: 12.0°C (54°F) [RH = 82%]
Pressure (altimeter): 30.15 inches Hg (1021.0 mb)
Winds: from the SW (220 degrees) at 8 MPH (7 knots; 3.6 m/s)
Visibility: 6 or more miles (10+ km)
Ceiling: at least 12,000 feet AGL
Clouds: sky clear below 12,000 feet AGL
Weather: no significant weather observed at this time

METAR text: EHEH 200625Z AUTO 22008KT 190V270 9999 FEW270 14/12 Q1021 BLU 21009KT CAVOK
Conditions at: EHEH (EINDHOVEN RNLAFB, NL) observed 0625 UTC 20 August 2019
Temperature: 14.0°C (57°F)
Dewpoint: 12.0°C (54°F) [RH = 88%]
Pressure (altimeter): 30.15 inches Hg (1021.0 mb)
Winds: from the SW (220 degrees) at 9 MPH (8 knots; 4.1 m/s)
Visibility: 6 or more miles (10+ km)
Ceiling: at least 12,000 feet AGL
Clouds: few clouds at 27000 feet AGL
Weather: no significant weather observed at this time

METAR text: EHEH 200555Z AUTO 21007KT 9999 NCD 13/11 Q1021 BLU 21009KT CAVOK
Conditions at: EHEH (EINDHOVEN RNLAFB, NL) observed 0555 UTC 20 August 2019
Temperature: 13.0°C (55°F)
Dewpoint: 11.0°C (52°F) [RH = 88%]
Pressure (altimeter): 30.15 inches Hg (1021.0 mb)
Winds: from the SSW (210 degrees) at 8 MPH (7 knots; 3.6 m/s)
Visibility: 6 or more miles (10+ km)
Ceiling: at least 12,000 feet AGL
Clouds: sky clear below 12,000 feet AGL
Weather: no significant weather observed at this time

METAR text: EHEH 200525Z AUTO 22006KT 180V240 9999 NCD 12/11 Q1021 BLU 21009KT CAVOK
Conditions at: EHEH (EINDHOVEN RNLAFB, NL) observed 0525 UTC 20 August 2019
Temperature: 12.0°C (54°F)
Dewpoint: 11.0°C (52°F) [RH = 94%]
Pressure (altimeter): 30.15 inches Hg (1021.0 mb)
Winds: from the SW (220 degrees) at 7 MPH (6 knots; 3.1 m/s)
Visibility: 6 or more miles (10+ km)
Ceiling: at least 12,000 feet AGL
Clouds: sky clear below 12,000 feet AGL
Weather: no significant weather observed at this time

METAR text: EHEH 200455Z AUTO 21005KT 170V230 9999 NCD 12/10 Q1020 BLU 21009KT CAVOK
Conditions at: EHEH (EINDHOVEN RNLAFB, NL) observed 0455 UTC 20 August 2019
Temperature: 12.0°C (54°F)
Dewpoint: 10.0°C (50°F) [RH = 88%]
Pressure (altimeter): 30.12 inches Hg (1020.0 mb)
Winds: from the SSW (210 degrees) at 6 MPH (5 knots; 2.6 m/s)
Visibility: 6 or more miles (10+ km)
Ceiling: at least 12,000 feet AGL
Clouds: sky clear below 12,000 feet AGL
Weather: no significant weather observed at this time

METAR text: EHEH 200425Z AUTO 21007KT 9999 NCD 12/10 Q1020 BLU 21009KT CAVOK
Conditions at: EHEH (EINDHOVEN RNLAFB, NL) observed 0425 UTC 20 August 2019
Temperature: 12.0°C (54°F)
Dewpoint: 10.0°C (50°F) [RH = 88%]
Pressure (altimeter): 30.12 inches Hg (1020.0 mb)
Winds: from the SSW (210 degrees) at 8 MPH (7 knots; 3.6 m/s)
Visibility: 6 or more miles (10+ km)
Ceiling: at least 12,000 feet AGL
Clouds: sky clear below 12,000 feet AGL
Weather: no significant weather observed at this time

METAR text: EHEH 200355Z AUTO 21006KT 9999 NCD 11/10 Q1020 BLU
Conditions at: EHEH (EINDHOVEN RNLAFB, NL) observed 0355 UTC 20 August 2019
Temperature: 11.0°C (52°F)
Dewpoint: 10.0°C (50°F) [RH = 94%]
Pressure (altimeter): 30.12 inches Hg (1020.0 mb)
Winds: from the SSW (210 degrees) at 7 MPH (6 knots; 3.1 m/s)
Visibility: 6 or more miles (10+ km)
Ceiling: at least 12,000 feet AGL
Clouds: sky clear below 12,000 feet AGL
Weather: no significant weather observed at this time

METAR text: EHEH 200325Z AUTO 21006KT 9999 NCD 12/10 Q1020 BLU
Conditions at: EHEH (EINDHOVEN RNLAFB, NL) observed 0325 UTC 20 August 2019
Temperature: 12.0°C (54°F)
Dewpoint: 10.0°C (50°F) [RH = 88%]
Pressure (altimeter): 30.12 inches Hg (1020.0 mb)
Winds: from the SSW (210 degrees) at 7 MPH (6 knots; 3.1 m/s)
Visibility: 6 or more miles (10+ km)
Ceiling: at least 12,000 feet AGL
Clouds: sky clear below 12,000 feet AGL
Weather: no significant weather observed at this time

METAR text: EHEH 200255Z AUTO 21007KT 9999 NCD 12/10 Q1020 BLU
Conditions at: EHEH (EINDHOVEN RNLAFB, NL) observed 0255 UTC 20 August 2019
Temperature: 12.0°C (54°F)
Dewpoint: 10.0°C (50°F) [RH = 88%]
Pressure (altimeter): 30.12 inches Hg (1020.0 mb)
Winds: from the SSW (210 degrees) at 8 MPH (7 knots; 3.6 m/s)
Visibility: 6 or more miles (10+ km)
Ceiling: at least 12,000 feet AGL
Clouds: sky clear below 12,000 feet AGL
Weather: no significant weather observed at this time

METAR text: EHEH 200225Z AUTO 21006KT 9999 NCD 12/10 Q1020 BLU
Conditions at: EHEH (EINDHOVEN RNLAFB, NL) observed 0225 UTC 20 August 2019
Temperature: 12.0°C (54°F)
Dewpoint: 10.0°C (50°F) [RH = 88%]
Pressure (altimeter): 30.12 inches Hg (1020.0 mb)
Winds: from the SSW (210 degrees) at 7 MPH (6 knots; 3.1 m/s)
Visibility: 6 or more miles (10+ km)
Ceiling: at least 12,000 feet AGL
Clouds: sky clear below 12,000 feet AGL
Weather: no significant weather observed at this time

METAR text: EHEH 200155Z AUTO 21006KT 9999 NCD 12/10 Q1020 BLU
Conditions at: EHEH (EINDHOVEN RNLAFB, NL) observed 0155 UTC 20 August 2019
Temperature: 12.0°C (54°F)
Dewpoint: 10.0°C (50°F) [RH = 88%]
Pressure (altimeter): 30.12 inches Hg (1020.0 mb)
Winds: from the SSW (210 degrees) at 7 MPH (6 knots; 3.1 m/s)
Visibility: 6 or more miles (10+ km)
Ceiling: at least 12,000 feet AGL
Clouds: sky clear below 12,000 feet AGL
Weather: no significant weather observed at this time

METAR text: EHEH 200125Z AUTO 20006KT 9999 NCD 13/09 Q1020 BLU
Conditions at: EHEH (EINDHOVEN RNLAFB, NL) observed 0125 UTC 20 August 2019
Temperature: 13.0°C (55°F)
Dewpoint: 9.0°C (48°F) [RH = 77%]
Pressure (altimeter): 30.12 inches Hg (1020.0 mb)
Winds: from the SSW (200 degrees) at 7 MPH (6 knots; 3.1 m/s)
Visibility: 6 or more miles (10+ km)
Ceiling: at least 12,000 feet AGL
Clouds: sky clear below 12,000 feet AGL
Weather: no significant weather observed at this time

METAR text: EHEH 200055Z AUTO 21006KT 9999 NCD 12/09 Q1020 BLU
Conditions at: EHEH (EINDHOVEN RNLAFB, NL) observed 0055 UTC 20 August 2019
Temperature: 12.0°C (54°F)
Dewpoint: 9.0°C (48°F) [RH = 82%]
Pressure (altimeter): 30.12 inches Hg (1020.0 mb)
Winds: from the SSW (210 degrees) at 7 MPH (6 knots; 3.1 m/s)
Visibility: 6 or more miles (10+ km)
Ceiling: at least 12,000 feet AGL
Clouds: sky clear below 12,000 feet AGL
Weather: no significant weather observed at this time

METAR text: EHEH 200025Z AUTO 20006KT 9999 BKN250 13/09 Q1020 BLU
Conditions at: EHEH (EINDHOVEN RNLAFB, NL) observed 0025 UTC 20 August 2019
Temperature: 13.0°C (55°F)
Dewpoint: 9.0°C (48°F) [RH = 77%]
Pressure (altimeter): 30.12 inches Hg (1020.0 mb)
Winds: from the SSW (200 degrees) at 7 MPH (6 knots; 3.1 m/s)
Visibility: 6 or more miles (10+ km)
Ceiling: 25000 feet AGL
Clouds: broken clouds at 25000 feet AGL
Weather: no significant weather observed at this time

METAR text: EHEH 192355Z AUTO 20006KT 9999 OVC250 13/09 Q1020 BLU
Conditions at: EHEH (EINDHOVEN RNLAFB, NL) observed 2355 UTC 19 August 2019
Temperature: 13.0°C (55°F)
Dewpoint: 9.0°C (48°F) [RH = 77%]
Pressure (altimeter): 30.12 inches Hg (1020.0 mb)
Winds: from the SSW (200 degrees) at 7 MPH (6 knots; 3.1 m/s)
Visibility: 6 or more miles (10+ km)
Ceiling: 25000 feet AGL
Clouds: overcast cloud deck at 25000 feet AGL
Weather: no significant weather observed at this time

METAR text: EHEH 192325Z AUTO 21007KT 9999 OVC250 12/09 Q1019 BLU
Conditions at: EHEH (EINDHOVEN RNLAFB, NL) observed 2325 UTC 19 August 2019
Temperature: 12.0°C (54°F)
Dewpoint: 9.0°C (48°F) [RH = 82%]
Pressure (altimeter): 30.09 inches Hg (1019.0 mb)
Winds: from the SSW (210 degrees) at 8 MPH (7 knots; 3.6 m/s)
Visibility: 6 or more miles (10+ km)
Ceiling: 25000 feet AGL
Clouds: overcast cloud deck at 25000 feet AGL
Weather: no significant weather observed at this time

METAR text: EHEH 192255Z AUTO 20005KT 9999 NCD 13/09 Q1019 BLU
Conditions at: EHEH (EINDHOVEN RNLAFB, NL) observed 2255 UTC 19 August 2019
Temperature: 13.0°C (55°F)
Dewpoint: 9.0°C (48°F) [RH = 77%]
Pressure (altimeter): 30.09 inches Hg (1019.0 mb)
Winds: from the SSW (200 degrees) at 6 MPH (5 knots; 2.6 m/s)
Visibility: 6 or more miles (10+ km)
Ceiling: at least 12,000 feet AGL
Clouds: sky clear below 12,000 feet AGL
Weather: no significant weather observed at this time

METAR text: EHEH 192225Z AUTO 21007KT 9999 NCD 13/09 Q1019 BLU
Conditions at: EHEH (EINDHOVEN RNLAFB, NL) observed 2225 UTC 19 August 2019
Temperature: 13.0°C (55°F)
Dewpoint: 9.0°C (48°F) [RH = 77%]
Pressure (altimeter): 30.09 inches Hg (1019.0 mb)
Winds: from the SSW (210 degrees) at 8 MPH (7 knots; 3.6 m/s)
Visibility: 6 or more miles (10+ km)
Ceiling: at least 12,000 feet AGL
Clouds: sky clear below 12,000 feet AGL
Weather: no significant weather observed at this time

METAR text: EHEH 192155Z AUTO 22007KT 9999 NCD 13/09 Q1019 BLU
Conditions at: EHEH (EINDHOVEN RNLAFB, NL) observed 2155 UTC 19 August 2019
Temperature: 13.0°C (55°F)
Dewpoint: 9.0°C (48°F) [RH = 77%]
Pressure (altimeter): 30.09 inches Hg (1019.0 mb)
Winds: from the SW (220 degrees) at 8 MPH (7 knots; 3.6 m/s)
Visibility: 6 or more miles (10+ km)
Ceiling: at least 12,000 feet AGL
Clouds: sky clear below 12,000 feet AGL
Weather: no significant weather observed at this time

METAR text: EHEH 192125Z AUTO 22008KT 9999 NCD 14/10 Q1019 BLU
Conditions at: EHEH (EINDHOVEN RNLAFB, NL) observed 2125 UTC 19 August 2019
Temperature: 14.0°C (57°F)
Dewpoint: 10.0°C (50°F) [RH = 77%]
Pressure (altimeter): 30.09 inches Hg (1019.0 mb)
Winds: from the SW (220 degrees) at 9 MPH (8 knots; 4.1 m/s)
Visibility: 6 or more miles (10+ km)
Ceiling: at least 12,000 feet AGL
Clouds: sky clear below 12,000 feet AGL
Weather: no significant weather observed at this time

METAR text: EHEH 192111Z AUTO 22007KT 200V260 9999 NCD 14/10 Q1019 BLU
Conditions at: EHEH (EINDHOVEN RNLAFB, NL) observed 2111 UTC 19 August 2019
Temperature: 14.0°C (57°F)
Dewpoint: 10.0°C (50°F) [RH = 77%]
Pressure (altimeter): 30.09 inches Hg (1019.0 mb)
Winds: from the SW (220 degrees) at 8 MPH (7 knots; 3.6 m/s)
Visibility: 6 or more miles (10+ km)
Ceiling: at least 12,000 feet AGL
Clouds: sky clear below 12,000 feet AGL
Weather: no significant weather observed at this time

METAR text: EHEH 192055Z AUTO 21006KT 9999 NCD 15/10 Q1018 BLU 21006KT CAVOK
Conditions at: EHEH (EINDHOVEN RNLAFB, NL) observed 2055 UTC 19 August 2019
Temperature: 15.0°C (59°F)
Dewpoint: 10.0°C (50°F) [RH = 72%]
Pressure (altimeter): 30.06 inches Hg (1018.0 mb)
Winds: from the SSW (210 degrees) at 7 MPH (6 knots; 3.1 m/s)
Visibility: 6 or more miles (10+ km)
Ceiling: at least 12,000 feet AGL
Clouds: sky clear below 12,000 feet AGL
Weather: no significant weather observed at this time

METAR text: EHEH 192025Z AUTO 21006KT 9999 NCD 15/10 Q1018 BLU 21006KT CAVOK
Conditions at: EHEH (EINDHOVEN RNLAFB, NL) observed 2025 UTC 19 August 2019
Temperature: 15.0°C (59°F)
Dewpoint: 10.0°C (50°F) [RH = 72%]
Pressure (altimeter): 30.06 inches Hg (1018.0 mb)
Winds: from the SSW (210 degrees) at 7 MPH (6 knots; 3.1 m/s)
Visibility: 6 or more miles (10+ km)
Ceiling: at least 12,000 feet AGL
Clouds: sky clear below 12,000 feet AGL
Weather: no significant weather observed at this time

METAR text: EHEH 191955Z AUTO 21007KT 9999 NCD 16/10 Q1018 BLU 21006KT CAVOK
Conditions at: EHEH (EINDHOVEN RNLAFB, NL) observed 1955 UTC 19 August 2019
Temperature: 16.0°C (61°F)
Dewpoint: 10.0°C (50°F) [RH = 68%]
Pressure (altimeter): 30.06 inches Hg (1018.0 mb)
Winds: from the SSW (210 degrees) at 8 MPH (7 knots; 3.6 m/s)
Visibility: 6 or more miles (10+ km)
Ceiling: at least 12,000 feet AGL
Clouds: sky clear below 12,000 feet AGL
Weather: no significant weather observed at this time

METAR text: EHEH 191925Z AUTO 20005KT 9999 FEW095 16/10 Q1018 BLU 21006KT 9999 FEW045
Conditions at: EHEH (EINDHOVEN RNLAFB, NL) observed 1925 UTC 19 August 2019
Temperature: 16.0°C (61°F)
Dewpoint: 10.0°C (50°F) [RH = 68%]
Pressure (altimeter): 30.06 inches Hg (1018.0 mb)
Winds: from the SSW (200 degrees) at 6 MPH (5 knots; 2.6 m/s)
Visibility: 6 or more miles (10+ km)
Ceiling: at least 12,000 feet AGL
Clouds: few clouds at 9500 feet AGL
few clouds at 4500 feet AGL
Weather: no significant weather observed at this time

METAR text: EHEH 191855Z AUTO 21006KT 160V270 9999 NCD 17/10 Q1017 BLU 21006KT 9999 FEW045
Conditions at: EHEH (EINDHOVEN RNLAFB, NL) observed 1855 UTC 19 August 2019
Temperature: 17.0°C (63°F)
Dewpoint: 10.0°C (50°F) [RH = 63%]
Pressure (altimeter): 30.03 inches Hg (1017.0 mb)
Winds: from the SSW (210 degrees) at 7 MPH (6 knots; 3.1 m/s)
Visibility: 6 or more miles (10+ km)
Ceiling: at least 12,000 feet AGL
Clouds: few clouds at 4500 feet AGL
Weather: no significant weather observed at this time

METAR text: EHEH 191825Z AUTO 20006KT 180V240 9999 NCD 19/10 Q1017 BLU 23010KT 9999 FEW045
Conditions at: EHEH (EINDHOVEN RNLAFB, NL) observed 1825 UTC 19 August 2019
Temperature: 19.0°C (66°F)
Dewpoint: 10.0°C (50°F) [RH = 56%]
Pressure (altimeter): 30.03 inches Hg (1017.0 mb)
Winds: from the SSW (200 degrees) at 7 MPH (6 knots; 3.1 m/s)
Visibility: 6 or more miles (10+ km)
Ceiling: at least 12,000 feet AGL
Clouds: few clouds at 4500 feet AGL
Weather: no significant weather observed at this time

METAR text: EHEH 191755Z AUTO 23007KT 200V270 9999 FEW082 20/09 Q1017 BLU 23010KT 9999 FEW045
Conditions at: EHEH (EINDHOVEN RNLAFB, NL) observed 1755 UTC 19 August 2019
Temperature: 20.0°C (68°F)
Dewpoint: 9.0°C (48°F) [RH = 49%]
Pressure (altimeter): 30.03 inches Hg (1017.0 mb)
Winds: from the SW (230 degrees) at 8 MPH (7 knots; 3.6 m/s)
Visibility: 6 or more miles (10+ km)
Ceiling: at least 12,000 feet AGL
Clouds: few clouds at 8200 feet AGL
few clouds at 4500 feet AGL
Weather: no significant weather observed at this time

METAR text: EHEH 191725Z AUTO 23012KT 200V290 9999 FEW088 21/09 Q1017 BLU 23010KT 9999 FEW045
Conditions at: EHEH (EINDHOVEN RNLAFB, NL) observed 1725 UTC 19 August 2019
Temperature: 21.0°C (70°F)
Dewpoint: 9.0°C (48°F) [RH = 46%]
Pressure (altimeter): 30.03 inches Hg (1017.0 mb)
Winds: from the SW (230 degrees) at 14 MPH (12 knots; 6.2 m/s)
Visibility: 6 or more miles (10+ km)
Ceiling: at least 12,000 feet AGL
Clouds: few clouds at 8800 feet AGL
few clouds at 4500 feet AGL
Weather: no significant weather observed at this time

METAR text: EHEH 191707Z AUTO 23013KT 200V290 9999 FEW095 21/08 Q1017 BLU 23010KT 9999 FEW045
Conditions at: EHEH (EINDHOVEN RNLAFB, NL) observed 1707 UTC 19 August 2019
Temperature: 21.0°C (70°F)
Dewpoint: 8.0°C (46°F) [RH = 43%]
Pressure (altimeter): 30.03 inches Hg (1017.0 mb)
Winds: from the SW (230 degrees) at 15 MPH (13 knots; 6.7 m/s)
Visibility: 6 or more miles (10+ km)
Ceiling: at least 12,000 feet AGL
Clouds: few clouds at 9500 feet AGL
few clouds at 4500 feet AGL
Weather: no significant weather observed at this time

METAR text: EHEH 191655Z AUTO 23007KT 180V290 9999 FEW041CB 21/10 Q1017 BLU 23010KT 9999 SCT045 TEMPO FEW030CB SCT040
Conditions at: EHEH (EINDHOVEN RNLAFB, NL) observed 1655 UTC 19 August 2019
Temperature: 21.0°C (70°F)
Dewpoint: 10.0°C (50°F) [RH = 49%]
Pressure (altimeter): 30.03 inches Hg (1017.0 mb)
Winds: from the SW (230 degrees) at 8 MPH (7 knots; 3.6 m/s)
Visibility: 6 or more miles (10+ km)
Ceiling: at least 12,000 feet AGL
Clouds: few clouds at 4100 feet AGL
scattered clouds at 4500 feet AGL
Weather: no significant weather observed at this time

METAR text: EHEH 191625Z AUTO 24010KT 200V340 9999 BKN042 OVC047 20/12 Q1017 BLU 23013KT 9999 SCT045 TEMPO 25015G26KT FEW030CB SCT040
Conditions at: EHEH (EINDHOVEN RNLAFB, NL) observed 1625 UTC 19 August 2019
Temperature: 20.0°C (68°F)
Dewpoint: 12.0°C (54°F) [RH = 60%]
Pressure (altimeter): 30.03 inches Hg (1017.0 mb)
Winds: from the WSW (240 degrees) at 12 MPH (10 knots; 5.1 m/s)
Visibility: 6 or more miles (10+ km)
Ceiling: 4200 feet AGL
Clouds: broken clouds at 4200 feet AGL
overcast cloud deck at 4700 feet AGL
scattered clouds at 4500 feet AGL
Weather: no significant weather observed at this time

METAR text: EHEH 191555Z AUTO 22013KT 190V250 9999 FEW045CB SCT046 OVC095 21/10 Q1017 BLU 23013KT 9999 SCT045 TEMPO 25015G26KT FEW030CB SCT040
Conditions at: EHEH (EINDHOVEN RNLAFB, NL) observed 1555 UTC 19 August 2019
Temperature: 21.0°C (70°F)
Dewpoint: 10.0°C (50°F) [RH = 49%]
Pressure (altimeter): 30.03 inches Hg (1017.0 mb)
Winds: from the SW (220 degrees) at 15 MPH (13 knots; 6.7 m/s)
Visibility: 6 or more miles (10+ km)
Ceiling: 9500 feet AGL
Clouds: few clouds at 4500 feet AGL
scattered clouds at 4600 feet AGL
overcast cloud deck at 9500 feet AGL
scattered clouds at 4500 feet AGL
Weather: no significant weather observed at this time

METAR text: EHEH 191525Z AUTO 23015KT 190V260 9999 FEW068 21/10 Q1016 BLU 23013KT 9999 SCT045 TEMPO 25015G26KT FEW030CB SCT040
Conditions at: EHEH (EINDHOVEN RNLAFB, NL) observed 1525 UTC 19 August 2019
Temperature: 21.0°C (70°F)
Dewpoint: 10.0°C (50°F) [RH = 49%]
Pressure (altimeter): 30.00 inches Hg (1016.0 mb)
Winds: from the SW (230 degrees) at 17 MPH (15 knots; 7.7 m/s)
Visibility: 6 or more miles (10+ km)
Ceiling: at least 12,000 feet AGL
Clouds: few clouds at 6800 feet AGL
scattered clouds at 4500 feet AGL
Weather: no significant weather observed at this time

METAR text: EHEH 191455Z AUTO 23013KT 200V270 9999 FEW050 22/10 Q1016 BLU 23013KT 9999 SCT045 TEMPO 25015G26KT FEW030CB SCT040
Conditions at: EHEH (EINDHOVEN RNLAFB, NL) observed 1455 UTC 19 August 2019
Temperature: 22.0°C (72°F)
Dewpoint: 10.0°C (50°F) [RH = 46%]
Pressure (altimeter): 30.00 inches Hg (1016.0 mb)
Winds: from the SW (230 degrees) at 15 MPH (13 knots; 6.7 m/s)
Visibility: 6 or more miles (10+ km)
Ceiling: at least 12,000 feet AGL
Clouds: few clouds at 5000 feet AGL
scattered clouds at 4500 feet AGL
Weather: no significant weather observed at this time

METAR text: EHEH 191425Z AUTO 23015G26KT 190V270 9999 FEW048 22/10 Q1016 BLU 23013KT 9999 SCT044 TEMPO 25015G26KT FEW030CB SCT040
Conditions at: EHEH (EINDHOVEN RNLAFB, NL) observed 1425 UTC 19 August 2019
Temperature: 22.0°C (72°F)
Dewpoint: 10.0°C (50°F) [RH = 46%]
Pressure (altimeter): 30.00 inches Hg (1016.0 mb)
Winds: from the SW (230 degrees) at 17 MPH (15 knots; 7.7 m/s)
gusting to 30 MPH (26 knots; 13.4 m/s)
Visibility: 6 or more miles (10+ km)
Ceiling: at least 12,000 feet AGL
Clouds: few clouds at 4800 feet AGL
scattered clouds at 4400 feet AGL
Weather: no significant weather observed at this time

METAR text: EHEH 191355Z AUTO 22014KT 180V280 9999 FEW044 BKN084 22/10 Q1016 BLU 23013KT 9999 SCT044 TEMPO 25015G26KT FEW030CB SCT040
Conditions at: EHEH (EINDHOVEN RNLAFB, NL) observed 1355 UTC 19 August 2019
Temperature: 22.0°C (72°F)
Dewpoint: 10.0°C (50°F) [RH = 46%]
Pressure (altimeter): 30.00 inches Hg (1016.0 mb)
Winds: from the SW (220 degrees) at 16 MPH (14 knots; 7.2 m/s)
Visibility: 6 or more miles (10+ km)
Ceiling: 8400 feet AGL
Clouds: few clouds at 4400 feet AGL
broken clouds at 8400 feet AGL
scattered clouds at 4400 feet AGL
Weather: no significant weather observed at this time

METAR text: EHEH 191325Z AUTO 24015KT 190V260 9999 FEW042 SCT093 22/09 Q1016 BLU 23015G26KT 9999 SCT042 TEMPO FEW025CB SCT040
Conditions at: EHEH (EINDHOVEN RNLAFB, NL) observed 1325 UTC 19 August 2019
Temperature: 22.0°C (72°F)
Dewpoint: 9.0°C (48°F) [RH = 43%]
Pressure (altimeter): 30.00 inches Hg (1016.0 mb)
Winds: from the WSW (240 degrees) at 17 MPH (15 knots; 7.7 m/s)
Visibility: 6 or more miles (10+ km)
Ceiling: at least 12,000 feet AGL
Clouds: few clouds at 4200 feet AGL
scattered clouds at 9300 feet AGL
scattered clouds at 4200 feet AGL
Weather: no significant weather observed at this time

METAR text: EHEH 191255Z AUTO 23018KT 210V290 9999 BKN041 BKN047 BKN054 22/11 Q1016 BLU 23015G26KT 9999 SCT042 TEMPO FEW025CB SCT040
Conditions at: EHEH (EINDHOVEN RNLAFB, NL) observed 1255 UTC 19 August 2019
Temperature: 22.0°C (72°F)
Dewpoint: 11.0°C (52°F) [RH = 50%]
Pressure (altimeter): 30.00 inches Hg (1016.0 mb)
Winds: from the SW (230 degrees) at 21 MPH (18 knots; 9.3 m/s)
Visibility: 6 or more miles (10+ km)
Ceiling: 4100 feet AGL
Clouds: broken clouds at 4100 feet AGL
broken clouds at 4700 feet AGL
broken clouds at 5400 feet AGL
scattered clouds at 4200 feet AGL
Weather: no significant weather observed at this time

METAR text: EHEH 191244Z AUTO 23015KT 200V280 9999 SCT042 SCT051 BKN059 21/11 Q1016 BLU 23015G26KT 9999 SCT042 TEMPO FEW025CB SCT040
Conditions at: EHEH (EINDHOVEN RNLAFB, NL) observed 1244 UTC 19 August 2019
Temperature: 21.0°C (70°F)
Dewpoint: 11.0°C (52°F) [RH = 53%]
Pressure (altimeter): 30.00 inches Hg (1016.0 mb)
Winds: from the SW (230 degrees) at 17 MPH (15 knots; 7.7 m/s)
Visibility: 6 or more miles (10+ km)
Ceiling: 5900 feet AGL
Clouds: scattered clouds at 4200 feet AGL
scattered clouds at 5100 feet AGL
broken clouds at 5900 feet AGL
scattered clouds at 4200 feet AGL
Weather: no significant weather observed at this time

METAR text: EHEH 191225Z AUTO 23017KT 190V290 9999 FEW043 22/10 Q1016 BLU 23014G24KT 9999 SCT040 TEMPO FEW025CB SCT040
Conditions at: EHEH (EINDHOVEN RNLAFB, NL) observed 1225 UTC 19 August 2019
Temperature: 22.0°C (72°F)
Dewpoint: 10.0°C (50°F) [RH = 46%]
Pressure (altimeter): 30.00 inches Hg (1016.0 mb)
Winds: from the SW (230 degrees) at 20 MPH (17 knots; 8.7 m/s)
Visibility: 6 or more miles (10+ km)
Ceiling: at least 12,000 feet AGL
Clouds: few clouds at 4300 feet AGL
scattered clouds at 4000 feet AGL
Weather: no significant weather observed at this time

METAR text: EHEH 191155Z AUTO 24015KT 200V290 9999 FEW041 22/10 Q1016 BLU 23014G24KT 9999 SCT040 TEMPO FEW025CB SCT040
Conditions at: EHEH (EINDHOVEN RNLAFB, NL) observed 1155 UTC 19 August 2019
Temperature: 22.0°C (72°F)
Dewpoint: 10.0°C (50°F) [RH = 46%]
Pressure (altimeter): 30.00 inches Hg (1016.0 mb)
Winds: from the WSW (240 degrees) at 17 MPH (15 knots; 7.7 m/s)
Visibility: 6 or more miles (10+ km)
Ceiling: at least 12,000 feet AGL
Clouds: few clouds at 4100 feet AGL
scattered clouds at 4000 feet AGL
Weather: no significant weather observed at this time

METAR text: EHEH 191125Z AUTO 22015KT 170V280 9999 FEW040 SCT045 BKN051 21/11 Q1016 BLU 23014G24KT 9999 SCT040 TEMPO FEW025CB SCT040
Conditions at: EHEH (EINDHOVEN RNLAFB, NL) observed 1125 UTC 19 August 2019
Temperature: 21.0°C (70°F)
Dewpoint: 11.0°C (52°F) [RH = 53%]
Pressure (altimeter): 30.00 inches Hg (1016.0 mb)
Winds: from the SW (220 degrees) at 17 MPH (15 knots; 7.7 m/s)
Visibility: 6 or more miles (10+ km)
Ceiling: 5100 feet AGL
Clouds: few clouds at 4000 feet AGL
scattered clouds at 4500 feet AGL
broken clouds at 5100 feet AGL
scattered clouds at 4000 feet AGL
Weather: no significant weather observed at this time

METAR text: EHEH 191108Z AUTO 22017KT 190V270 9999 SCT039 BKN046 21/10 Q1015 BLU 23014G24KT 9999 SCT038
Conditions at: EHEH (EINDHOVEN RNLAFB, NL) observed 1108 UTC 19 August 2019
Temperature: 21.0°C (70°F)
Dewpoint: 10.0°C (50°F) [RH = 49%]
Pressure (altimeter): 29.97 inches Hg (1015.0 mb)
Winds: from the SW (220 degrees) at 20 MPH (17 knots; 8.7 m/s)
Visibility: 6 or more miles (10+ km)
Ceiling: 4600 feet AGL
Clouds: scattered clouds at 3900 feet AGL
broken clouds at 4600 feet AGL
scattered clouds at 3800 feet AGL
Weather: no significant weather observed at this time

METAR text: EHEH 191055Z AUTO 23014KT 190V270 9999 SCT033 BKN039 20/11 Q1015 BLU 23014G24KT 9999 SCT033
Conditions at: EHEH (EINDHOVEN RNLAFB, NL) observed 1055 UTC 19 August 2019
Temperature: 20.0°C (68°F)
Dewpoint: 11.0°C (52°F) [RH = 56%]
Pressure (altimeter): 29.97 inches Hg (1015.0 mb)
Winds: from the SW (230 degrees) at 16 MPH (14 knots; 7.2 m/s)
Visibility: 6 or more miles (10+ km)
Ceiling: 3900 feet AGL
Clouds: scattered clouds at 3300 feet AGL
broken clouds at 3900 feet AGL
scattered clouds at 3300 feet AGL
Weather: no significant weather observed at this time

METAR text: EHEH 191025Z AUTO 23013KT 200V290 9999 BKN033 BKN037 BKN048 21/12 Q1015 BLU 23014G24KT 9999 SCT033
Conditions at: EHEH (EINDHOVEN RNLAFB, NL) observed 1025 UTC 19 August 2019
Temperature: 21.0°C (70°F)
Dewpoint: 12.0°C (54°F) [RH = 56%]
Pressure (altimeter): 29.97 inches Hg (1015.0 mb)
Winds: from the SW (230 degrees) at 15 MPH (13 knots; 6.7 m/s)
Visibility: 6 or more miles (10+ km)
Ceiling: 3300 feet AGL
Clouds: broken clouds at 3300 feet AGL
broken clouds at 3700 feet AGL
broken clouds at 4800 feet AGL
scattered clouds at 3300 feet AGL
Weather: no significant weather observed at this time

METAR text: EHEH 190955Z AUTO 24015KT 200V280 9999 SCT031 BKN035 20/11 Q1015 BLU 22014G24KT 9999 SCT033
Conditions at: EHEH (EINDHOVEN RNLAFB, NL) observed 0955 UTC 19 August 2019
Temperature: 20.0°C (68°F)
Dewpoint: 11.0°C (52°F) [RH = 56%]
Pressure (altimeter): 29.97 inches Hg (1015.0 mb)
Winds: from the WSW (240 degrees) at 17 MPH (15 knots; 7.7 m/s)
Visibility: 6 or more miles (10+ km)
Ceiling: 3500 feet AGL
Clouds: scattered clouds at 3100 feet AGL
broken clouds at 3500 feet AGL
scattered clouds at 3300 feet AGL
Weather: no significant weather observed at this time

METAR text: EHEH 190925Z AUTO 23015KT 190V260 9999 FEW027 SCT031 19/11 Q1015 BLU 22012G22KT 9999 SCT030
Conditions at: EHEH (EINDHOVEN RNLAFB, NL) observed 0925 UTC 19 August 2019
Temperature: 19.0°C (66°F)
Dewpoint: 11.0°C (52°F) [RH = 60%]
Pressure (altimeter): 29.97 inches Hg (1015.0 mb)
Winds: from the SW (230 degrees) at 17 MPH (15 knots; 7.7 m/s)
Visibility: 6 or more miles (10+ km)
Ceiling: at least 12,000 feet AGL
Clouds: few clouds at 2700 feet AGL
scattered clouds at 3100 feet AGL
scattered clouds at 3000 feet AGL
Weather: no significant weather observed at this time

METAR text: EHEH 190921Z AUTO 23014KT 190V260 9999 FEW027 SCT030 19/11 Q1015 BLU 22012G22KT 9999 SCT030
Conditions at: EHEH (EINDHOVEN RNLAFB, NL) observed 0921 UTC 19 August 2019
Temperature: 19.0°C (66°F)
Dewpoint: 11.0°C (52°F) [RH = 60%]
Pressure (altimeter): 29.97 inches Hg (1015.0 mb)
Winds: from the SW (230 degrees) at 16 MPH (14 knots; 7.2 m/s)
Visibility: 6 or more miles (10+ km)
Ceiling: at least 12,000 feet AGL
Clouds: few clouds at 2700 feet AGL
scattered clouds at 3000 feet AGL
scattered clouds at 3000 feet AGL
Weather: no significant weather observed at this time

METAR text: EHEH 190855Z AUTO 23016KT 190V260 9999 NCD 18/12 Q1015 BLU 22012G22KT 9999 SCT022
Conditions at: EHEH (EINDHOVEN RNLAFB, NL) observed 0855 UTC 19 August 2019
Temperature: 18.0°C (64°F)
Dewpoint: 12.0°C (54°F) [RH = 68%]
Pressure (altimeter): 29.97 inches Hg (1015.0 mb)
Winds: from the SW (230 degrees) at 18 MPH (16 knots; 8.2 m/s)
Visibility: 6 or more miles (10+ km)
Ceiling: at least 12,000 feet AGL
Clouds: scattered clouds at 2200 feet AGL
Weather: no significant weather observed at this time

METAR text: EHEH 190825Z AUTO 23014KT 180V270 9999 FEW021 18/13 Q1015 BLU 22012G22KT 9999 SCT022
Conditions at: EHEH (EINDHOVEN RNLAFB, NL) observed 0825 UTC 19 August 2019
Temperature: 18.0°C (64°F)
Dewpoint: 13.0°C (55°F) [RH = 73%]
Pressure (altimeter): 29.97 inches Hg (1015.0 mb)
Winds: from the SW (230 degrees) at 16 MPH (14 knots; 7.2 m/s)
Visibility: 6 or more miles (10+ km)
Ceiling: at least 12,000 feet AGL
Clouds: few clouds at 2100 feet AGL
scattered clouds at 2200 feet AGL
Weather: no significant weather observed at this time

Forecast for: EHEH (EINDHOVEN RNLAFB, NL)
Text: TAF EHEH 201628Z 2017/2123 27007KT 9999 FEW030
Forecast period: 1700 to 2100 UTC 20 August 2019
Forecast type: FROM: standard forecast or significant change
Winds: from the W (270 degrees) at 8 MPH (7 knots; 3.6 m/s)
Visibility: 6 or more miles 10+ km)
Ceiling: at least 12,000 feet AGL
Clouds: few clouds at 3000 feet AGL
Weather: no significant weather forecast for this period
Text: BECMG 2021/2100 22005KT
Forecast period: 2100 UTC 20 August 2019 to 1800 UTC 21 August 2019
Forecast type: BECOMING: Conditions expected to become as follows by 0000 UTC 21 August 2019
Winds: from the SW (220 degrees) at 6 MPH (5 knots; 2.6 m/s)
Visibility: 6 or more miles 10+ km)
Ceiling: at least 12,000 feet AGL
Clouds: few clouds at 3000 feet AGL
Weather: no significant weather forecast for this period
Text: PROB30
Forecast period: 0300 to 0600 UTC 21 August 2019
Forecast type: TEMPORARY: The following changes expected for less than half the time period
Winds: variable direction winds at 3 MPH (3 knots; 1.5 m/s)
Visibility: 1.86 miles (2.99 km)
Ceiling: unknown
Clouds: missing
Weather: MIFG  (shallow fog)
Text: TEMPO 2103/2106 VRB03KT 3000 MIFG
Forecast period: 1800 to 2300 UTC 21 August 2019
Forecast type: BECOMING: Conditions expected to become as follows by 2100 UTC 21 August 2019
Winds: variable direction winds at 3 MPH (3 knots; 1.5 m/s)
Visibility: 6 or more miles 10+ km)
Ceiling: at least 12,000 feet AGL
Clouds: few clouds at 3000 feet AGL
Weather: no significant weather forecast for this period